Time;durP1;ratioP1;P1;durP2;ratioP2;P2;SDS_P1;SDS_P2;PMS_P1;PMS_P2;Temp;Humidity;BMP_temperature;BMP_pressure;BME280_temperature;BME280_humidity;BME280_pressure;Samples;Min_cycle;Max_cycle;Signal;HPM_P1;HPM_P2
2021/10/08 00:00:33;;;;;;;29.00;12.18;;;5.50;99.90;;;;;;4992252;28;20050;-68
2021/10/08 00:03:00;;;;;;;21.35;10.02;;;5.50;99.90;;;;;;4980984;28;20117;-68
2021/10/08 00:05:27;;;;;;;28.50;12.00;;;5.50;99.90;;;;;;4980013;28;21972;-68
2021/10/08 00:07:54;;;;;;;24.13;11.25;;;5.40;99.90;;;;;;4966508;28;20306;-68
2021/10/08 00:10:23;;;;;;;21.65;11.05;;;5.40;99.90;;;;;;4998139;28;20145;-68
2021/10/08 00:12:50;;;;;;;22.80;10.65;;;5.30;99.90;;;;;;4983026;28;20062;-68
2021/10/08 00:15:17;;;;;;;22.17;10.20;;;5.30;99.90;;;;;;4999263;28;20057;-68
2021/10/08 00:17:44;;;;;;;18.27;9.35;;;5.30;99.90;;;;;;5000907;28;20139;-68
2021/10/08 00:20:12;;;;;;;23.60;9.65;;;5.20;99.90;;;;;;4987893;28;20081;-69
2021/10/08 00:22:39;;;;;;;26.05;10.05;;;5.20;99.90;;;;;;4979868;28;20333;-68
2021/10/08 00:25:06;;;;;;;24.60;10.75;;;5.40;99.90;;;;;;4987479;28;20324;-68
2021/10/08 00:27:33;;;;;;;31.52;12.90;;;5.60;99.90;;;;;;4999561;28;20490;-68
2021/10/08 00:30:00;;;;;;;32.13;13.70;;;5.70;99.90;;;;;;4996715;28;20351;-68
2021/10/08 00:32:27;;;;;;;32.47;12.60;;;5.80;99.90;;;;;;4982362;28;20121;-69
2021/10/08 00:34:54;;;;;;;26.65;12.73;;;5.60;99.90;;;;;;4962135;28;20128;-69
2021/10/08 00:37:20;;;;;;;26.85;11.75;;;5.50;99.90;;;;;;4978576;28;20102;-68
2021/10/08 00:39:47;;;;;;;23.25;11.35;;;5.50;99.90;;;;;;4978088;28;20058;-70
2021/10/08 00:42:20;;;;;;;22.80;10.27;;;5.50;99.90;;;;;;4972580;28;20053;-70
2021/10/08 00:44:47;;;;;;;27.05;11.40;;;5.50;99.90;;;;;;4997350;28;20379;-68
2021/10/08 00:47:14;;;;;;;23.70;10.02;;;5.40;99.90;;;;;;4978962;28;20493;-68
2021/10/08 00:49:42;;;;;;;23.30;9.52;;;5.40;99.90;;;;;;4997323;28;20088;-68
2021/10/08 00:52:09;;;;;;;19.77;8.90;;;5.20;99.90;;;;;;4993585;28;20038;-70
2021/10/08 00:54:36;;;;;;;18.65;8.50;;;5.20;99.90;;;;;;4998449;28;20050;-70
2021/10/08 00:57:03;;;;;;;22.35;9.65;;;5.10;99.90;;;;;;4976548;28;20108;-70
2021/10/08 00:59:32;;;;;;;23.35;10.13;;;5.00;99.90;;;;;;5009161;28;20058;-70
2021/10/08 01:01:59;;;;;;;19.38;9.25;;;5.00;99.90;;;;;;4979579;28;20467;-70
2021/10/08 01:04:26;;;;;;;22.33;9.35;;;5.00;99.90;;;;;;4994396;28;20571;-70
2021/10/08 01:06:53;;;;;;;25.20;9.13;;;4.90;99.90;;;;;;4977729;28;20352;-69
2021/10/08 01:09:20;;;;;;;23.40;10.93;;;5.00;99.90;;;;;;4978693;28;20562;-69
2021/10/08 01:11:47;;;;;;;26.65;9.30;;;5.20;99.90;;;;;;4978362;28;20050;-69
2021/10/08 01:14:18;;;;;;;23.42;9.73;;;5.10;99.90;;;;;;4978169;28;20165;-69
2021/10/08 01:16:50;;;;;;;24.88;9.93;;;4.90;99.90;;;;;;5013256;28;20076;-69
2021/10/08 01:19:17;;;;;;;18.85;8.73;;;4.90;99.90;;;;;;4961507;28;20122;-69
2021/10/08 01:21:49;;;;;;;18.70;8.88;;;4.90;99.90;;;;;;4962006;28;20045;-69
2021/10/08 01:24:16;;;;;;;20.73;8.85;;;4.90;99.90;;;;;;4999344;28;20046;-69
2021/10/08 01:26:44;;;;;;;21.08;9.15;;;4.90;99.90;;;;;;4970005;28;20491;-69
2021/10/08 01:29:11;;;;;;;27.70;10.00;;;4.70;99.90;;;;;;4963080;28;20053;-68
2021/10/08 01:31:40;;;;;;;25.13;10.13;;;4.70;99.90;;;;;;4984661;28;20557;-68
2021/10/08 01:34:07;;;;;;;26.38;10.57;;;4.70;99.90;;;;;;4997036;28;20195;-68
2021/10/08 01:36:44;;;;;;;28.67;9.68;;;5.10;99.90;;;;;;4996846;28;20060;-68
2021/10/08 01:39:11;;;;;;;25.85;10.93;;;5.10;99.90;;;;;;4980630;28;20197;-68
2021/10/08 01:41:39;;;;;;;28.60;10.52;;;5.20;99.90;;;;;;4980284;28;20156;-68
2021/10/08 01:44:10;;;;;;;29.08;11.10;;;5.20;99.90;;;;;;4996406;28;20075;-69
2021/10/08 01:46:37;;;;;;;16.42;8.18;;;5.00;99.90;;;;;;4999919;28;20041;-68
2021/10/08 01:49:04;;;;;;;21.70;9.30;;;4.90;99.90;;;;;;5005708;28;20061;-69
2021/10/08 01:51:33;;;;;;;26.27;10.50;;;4.80;99.90;;;;;;4989284;28;20084;-69
2021/10/08 01:54:00;;;;;;;28.17;9.05;;;4.70;99.90;;;;;;4996901;28;20050;-69
2021/10/08 01:56:28;;;;;;;29.58;10.77;;;4.70;99.90;;;;;;4997343;28;20137;-69
2021/10/08 01:59:01;;;;;;;27.25;10.40;;;4.60;99.90;;;;;;4981594;28;20349;-70
2021/10/08 02:01:30;;;;;;;27.98;11.57;;;4.80;99.90;;;;;;4982457;28;20313;-69
2021/10/08 02:04:02;;;;;;;36.40;12.38;;;4.90;99.90;;;;;;4944863;28;20046;-70
2021/10/08 02:06:29;;;;;;;37.25;12.18;;;5.00;99.90;;;;;;4971291;28;20054;-70
2021/10/08 02:08:56;;;;;;;28.42;11.95;;;4.90;99.90;;;;;;4976027;28;20507;-70
2021/10/08 02:11:23;;;;;;;24.10;10.48;;;4.80;99.90;;;;;;4973977;28;20092;-69
2021/10/08 02:13:50;;;;;;;29.27;10.20;;;4.80;99.90;;;;;;4960205;28;20121;-69
2021/10/08 02:16:20;;;;;;;28.92;10.88;;;4.80;99.90;;;;;;4974523;28;20062;-70
2021/10/08 02:18:56;;;;;;;39.95;12.88;;;4.70;99.90;;;;;;4959525;28;20057;-69
2021/10/08 02:21:25;;;;;;;29.98;11.80;;;4.70;99.90;;;;;;4990981;28;20144;-70
2021/10/08 02:23:52;;;;;;;22.73;9.55;;;4.60;99.90;;;;;;4989510;28;20073;-69
2021/10/08 02:26:19;;;;;;;26.77;10.23;;;4.50;99.90;;;;;;4977948;28;20038;-69
2021/10/08 02:28:46;;;;;;;25.77;10.32;;;4.60;99.90;;;;;;4977937;28;20565;-69
2021/10/08 02:31:14;;;;;;;36.33;11.52;;;4.80;99.90;;;;;;4966129;28;20324;-69
2021/10/08 02:33:44;;;;;;;34.78;13.43;;;5.00;99.90;;;;;;4959769;28;20112;-70
2021/10/08 02:36:11;;;;;;;33.60;13.25;;;5.20;99.90;;;;;;4975694;28;20129;-69
2021/10/08 02:38:40;;;;;;;39.75;13.68;;;5.20;99.90;;;;;;4957319;28;20045;-69
2021/10/08 02:41:08;;;;;;;38.40;13.23;;;5.30;99.90;;;;;;4979334;28;20077;-69
2021/10/08 02:43:35;;;;;;;46.50;14.15;;;5.30;99.90;;;;;;4984906;28;20418;-69
2021/10/08 02:46:02;;;;;;;31.00;12.18;;;5.20;99.90;;;;;;4974718;28;20100;-70
2021/10/08 02:48:29;;;;;;;24.20;10.77;;;5.20;99.90;;;;;;4959227;28;20046;-69
2021/10/08 02:50:57;;;;;;;23.63;9.00;;;5.00;99.90;;;;;;4947393;28;20144;-70
2021/10/08 02:53:24;;;;;;;21.38;9.05;;;4.80;99.90;;;;;;4974414;28;20062;-70
2021/10/08 02:55:50;;;;;;;20.45;9.35;;;4.70;99.90;;;;;;4961829;28;20155;-70
2021/10/08 02:58:17;;;;;;;19.80;8.88;;;4.60;99.90;;;;;;4993741;28;20613;-68
2021/10/08 03:00:45;;;;;;;24.10;8.48;;;4.50;99.90;;;;;;4974682;28;20038;-70
2021/10/08 03:03:12;;;;;;;18.08;8.90;;;4.50;99.90;;;;;;4989413;28;20131;-70
2021/10/08 03:05:39;;;;;;;27.20;10.07;;;4.40;99.90;;;;;;4991637;28;20045;-70
2021/10/08 03:08:07;;;;;;;30.48;10.35;;;4.30;99.90;;;;;;4973402;28;20046;-70
2021/10/08 03:10:37;;;;;;;24.45;10.73;;;4.30;99.90;;;;;;4980594;28;20050;-70
2021/10/08 03:13:03;;;;;;;30.48;10.02;;;4.30;99.90;;;;;;4980410;28;20046;-70
2021/10/08 03:15:32;;;;;;;25.50;10.18;;;4.20;99.90;;;;;;4994330;28;20124;-70
2021/10/08 03:17:59;;;;;;;28.42;11.45;;;4.30;99.90;;;;;;4962296;28;20558;-70
2021/10/08 03:20:26;;;;;;;35.33;12.75;;;4.20;99.90;;;;;;4984062;28;20406;-70
2021/10/08 03:22:53;;;;;;;35.85;12.30;;;4.40;99.90;;;;;;4994542;28;20049;-70
2021/10/08 03:25:20;;;;;;;31.60;12.10;;;4.60;99.90;;;;;;4999212;28;20050;-70
2021/10/08 03:27:48;;;;;;;28.13;11.70;;;4.50;99.90;;;;;;4982144;28;20148;-70
2021/10/08 03:30:15;;;;;;;21.13;9.77;;;4.50;99.90;;;;;;4960945;28;20541;-67
2021/10/08 03:32:42;;;;;;;29.67;11.43;;;4.40;99.90;;;;;;4984063;28;20061;-69
2021/10/08 03:35:11;;;;;;;29.92;10.88;;;4.40;99.90;;;;;;4998051;28;20081;-69
2021/10/08 03:40:16;;;;;;;33.20;12.13;;;4.40;99.90;;;;;;4996011;28;20145;-69
2021/10/08 03:42:43;;;;;;;23.75;10.55;;;4.20;99.90;;;;;;5000305;28;20374;-69
2021/10/08 03:45:14;;;;;;;24.85;10.45;;;4.10;99.90;;;;;;4997945;28;20050;-69
2021/10/08 03:47:56;;;;;;;22.20;8.63;;;4.20;99.90;;;;;;4981370;28;20053;-69
2021/10/08 03:50:24;;;;;;;18.65;8.65;;;4.10;99.90;;;;;;4972919;28;20153;-69
2021/10/08 03:52:51;;;;;;;22.58;9.52;;;4.10;99.90;;;;;;4983156;28;20046;-69
2021/10/08 03:55:18;;;;;;;26.90;12.07;;;4.00;99.90;;;;;;4963152;28;20046;-69
2021/10/08 03:57:45;;;;;;;41.95;14.73;;;4.00;99.90;;;;;;4996615;28;20038;-70
2021/10/08 04:00:13;;;;;;;30.83;12.82;;;4.30;99.90;;;;;;4978868;28;20070;-69
2021/10/08 04:02:43;;;;;;;35.00;14.57;;;4.20;99.90;;;;;;4983960;28;20086;-70
2021/10/08 04:05:13;;;;;;;36.53;13.57;;;4.20;99.90;;;;;;4997229;28;20060;-69
2021/10/08 04:07:40;;;;;;;36.33;12.63;;;4.20;99.90;;;;;;4996430;28;20173;-70
2021/10/08 04:10:08;;;;;;;40.20;15.00;;;4.10;99.90;;;;;;4962865;28;20185;-69
2021/10/08 04:12:38;;;;;;;28.73;12.55;;;4.10;99.90;;;;;;4982509;28;20053;-68
2021/10/08 04:15:05;;;;;;;38.80;14.52;;;4.00;99.90;;;;;;4998002;28;20046;-68
2021/10/08 04:17:32;;;;;;;38.40;15.25;;;3.90;99.90;;;;;;4964801;28;20135;-69
2021/10/08 04:19:59;;;;;;;36.03;13.30;;;3.90;99.90;;;;;;4981297;28;20137;-69
2021/10/08 04:22:27;;;;;;;43.08;14.73;;;3.90;99.90;;;;;;4978291;28;20038;-69
2021/10/08 04:24:54;;;;;;;30.35;13.40;;;4.10;99.90;;;;;;4981198;28;20061;-69
2021/10/08 04:27:22;;;;;;;37.28;14.98;;;4.10;99.90;;;;;;4961801;28;20054;-68
2021/10/08 04:29:50;;;;;;;41.28;14.95;;;4.10;99.90;;;;;;4964625;28;20059;-69
2021/10/08 04:32:17;;;;;;;44.03;15.35;;;4.30;99.90;;;;;;4999007;28;20160;-68
2021/10/08 04:34:43;;;;;;;44.05;16.00;;;4.50;99.90;;;;;;4998878;28;20045;-69
2021/10/08 04:37:10;;;;;;;46.03;16.33;;;4.70;99.90;;;;;;4996341;28;20050;-69
2021/10/08 04:39:38;;;;;;;53.60;16.27;;;4.80;99.90;;;;;;4999382;28;20062;-68
2021/10/08 04:42:06;;;;;;;49.45;18.27;;;4.80;99.90;;;;;;4981294;28;20050;-70
2021/10/08 04:44:33;;;;;;;44.83;17.58;;;4.80;99.90;;;;;;4982656;28;20103;-70
2021/10/08 04:47:03;;;;;;;47.03;18.15;;;4.90;99.90;;;;;;4980265;28;20065;-69
2021/10/08 04:49:30;;;;;;;50.85;16.98;;;4.80;99.90;;;;;;4990822;28;20567;-68
2021/10/08 04:51:57;;;;;;;52.58;17.65;;;4.60;99.90;;;;;;4976269;28;20129;-68
2021/10/08 04:54:24;;;;;;;50.30;15.65;;;4.50;99.90;;;;;;4991299;28;20084;-68
2021/10/08 04:56:51;;;;;;;35.83;13.30;;;4.40;99.90;;;;;;4981557;28;20152;-68
2021/10/08 04:59:19;;;;;;;49.33;16.17;;;4.30;99.90;;;;;;4999021;28;20057;-68
2021/10/08 05:01:47;;;;;;;45.75;17.30;;;4.40;99.90;;;;;;4975803;28;20050;-69
2021/10/08 05:04:13;;;;;;;40.03;12.77;;;4.30;99.90;;;;;;4999607;28;20089;-68
2021/10/08 05:06:41;;;;;;;33.40;12.90;;;4.30;99.90;;;;;;4962729;28;20038;-68
2021/10/08 05:09:07;;;;;;;30.05;11.57;;;4.10;99.90;;;;;;4966101;28;20046;-68
2021/10/08 05:11:35;;;;;;;33.55;12.00;;;4.00;99.90;;;;;;4960503;28;20054;-68
2021/10/08 05:14:03;;;;;;;47.30;14.32;;;4.00;99.90;;;;;;4977689;28;20089;-68
2021/10/08 05:16:34;;;;;;;38.55;13.85;;;4.00;99.90;;;;;;4961957;28;20051;-68
2021/10/08 05:19:01;;;;;;;55.20;17.13;;;4.00;99.90;;;;;;4978376;28;20080;-67
2021/10/08 05:21:29;;;;;;;42.20;15.75;;;3.90;99.90;;;;;;4960872;28;20495;-68
2021/10/08 05:23:57;;;;;;;40.80;13.65;;;4.00;99.90;;;;;;4978534;28;20050;-68
2021/10/08 05:26:24;;;;;;;38.97;15.68;;;4.10;99.90;;;;;;4976923;28;20050;-70
2021/10/08 05:28:51;;;;;;;41.13;14.63;;;4.30;99.90;;;;;;4963403;28;20049;-68
2021/10/08 05:31:19;;;;;;;55.33;15.50;;;4.30;99.90;;;;;;4992513;28;20072;-68
2021/10/08 05:33:48;;;;;;;34.58;13.90;;;4.20;99.90;;;;;;4977796;28;20085;-68
2021/10/08 05:36:15;;;;;;;42.97;13.68;;;4.10;99.90;;;;;;4962044;28;20485;-68
2021/10/08 05:38:42;;;;;;;38.70;13.63;;;4.00;99.90;;;;;;4979300;28;20696;-68
2021/10/08 05:41:10;;;;;;;32.58;12.57;;;3.90;99.90;;;;;;4979042;28;20313;-68
2021/10/08 05:43:39;;;;;;;44.33;14.55;;;3.90;99.90;;;;;;4979215;28;20066;-68
2021/10/08 05:46:06;;;;;;;48.35;15.05;;;3.90;99.90;;;;;;4977037;28;20046;-68
2021/10/08 05:48:34;;;;;;;37.05;14.35;;;3.80;99.90;;;;;;4996394;28;20053;-68
2021/10/08 05:51:01;;;;;;;44.40;15.02;;;3.80;99.90;;;;;;4991913;28;20134;-68
2021/10/08 05:53:28;;;;;;;41.42;15.27;;;3.80;99.90;;;;;;4978006;28;20383;-68
2021/10/08 05:55:55;;;;;;;51.00;15.55;;;3.80;99.90;;;;;;4944020;28;20050;-67
2021/10/08 05:58:22;;;;;;;51.47;17.52;;;4.00;99.90;;;;;;4983355;28;20042;-68
2021/10/08 06:00:49;;;;;;;48.35;16.02;;;4.30;99.90;;;;;;4985703;28;20187;-68
2021/10/08 06:03:17;;;;;;;55.80;16.25;;;4.40;99.90;;;;;;4975326;28;20157;-68
2021/10/08 06:05:44;;;;;;;46.25;15.57;;;4.20;99.90;;;;;;4958656;28;20133;-68
2021/10/08 06:08:12;;;;;;;44.58;14.93;;;4.10;99.90;;;;;;4974509;28;20836;-68
2021/10/08 06:10:44;;;;;;;42.50;14.55;;;4.10;99.90;;;;;;4942840;28;20039;-68
2021/10/08 06:13:13;;;;;;;37.75;14.15;;;4.10;99.90;;;;;;4962178;28;20050;-68
2021/10/08 06:15:41;;;;;;;63.22;16.27;;;4.10;99.90;;;;;;4993307;28;20042;-68
2021/10/08 06:18:08;;;;;;;37.78;13.07;;;4.10;99.90;;;;;;4978999;28;20053;-68
2021/10/08 06:20:36;;;;;;;42.63;14.98;;;4.10;99.90;;;;;;4990734;28;20510;-68
2021/10/08 06:23:06;;;;;;;51.17;16.98;;;4.10;99.90;;;;;;4976940;28;20054;-68
2021/10/08 06:25:33;;;;;;;54.03;16.95;;;4.10;99.90;;;;;;4976745;28;20046;-67
2021/10/08 06:28:03;;;;;;;49.80;16.52;;;4.30;99.90;;;;;;4961443;28;20415;-68
2021/10/08 06:30:32;;;;;;;54.22;18.75;;;4.50;99.90;;;;;;4969266;28;20127;-68
2021/10/08 06:32:59;;;;;;;56.97;18.95;;;4.50;99.90;;;;;;4971248;28;20050;-68
2021/10/08 06:35:26;;;;;;;72.57;21.40;;;4.50;99.90;;;;;;4974702;28;20664;-69
2021/10/08 06:37:54;;;;;;;53.22;18.23;;;4.50;99.90;;;;;;4962300;28;20221;-68
2021/10/08 06:40:22;;;;;;;54.40;17.40;;;4.60;99.90;;;;;;4978257;28;20639;-68
2021/10/08 06:42:51;;;;;;;62.60;20.00;;;4.70;99.90;;;;;;4996575;28;20061;-69
2021/10/08 06:45:38;;;;;;;65.95;21.15;;;4.90;99.90;;;;;;4966743;28;20037;-69
2021/10/08 06:48:06;;;;;;;70.78;24.58;;;4.90;99.90;;;;;;4992754;28;20419;-68
2021/10/08 06:50:36;;;;;;;96.13;32.55;;;5.00;99.90;;;;;;4965783;28;20410;-69
2021/10/08 06:53:03;;;;;;;96.30;31.02;;;5.00;99.90;;;;;;4993153;28;20354;-68
2021/10/08 06:55:30;;;;;;;69.82;25.33;;;5.00;99.90;;;;;;4995377;28;20165;-70
2021/10/08 06:57:59;;;;;;;90.78;27.45;;;5.10;99.90;;;;;;4977423;28;20053;-68
2021/10/08 07:00:26;;;;;;;69.93;26.27;;;5.20;99.90;;;;;;4976139;28;20042;-67
2021/10/08 07:02:57;;;;;;;71.43;27.25;;;5.30;99.90;;;;;;4977003;28;20069;-68
2021/10/08 07:05:31;;;;;;;71.10;24.75;;;5.40;99.90;;;;;;4997292;28;20080;-68
2021/10/08 07:08:01;;;;;;;62.28;22.00;;;5.50;99.90;;;;;;4980308;28;20454;-68
2021/10/08 07:10:30;;;;;;;63.33;20.75;;;5.60;99.90;;;;;;4977401;28;20486;-68
2021/10/08 07:12:56;;;;;;;57.45;19.65;;;5.70;99.90;;;;;;4963473;28;20076;-68
2021/10/08 07:15:23;;;;;;;75.38;26.25;;;5.80;99.90;;;;;;4963526;28;20066;-68
2021/10/08 07:17:53;;;;;;;59.65;24.42;;;6.00;99.90;;;;;;4996786;28;20104;-68
2021/10/08 07:20:22;;;;;;;75.95;25.65;;;6.10;99.90;;;;;;4993129;28;20076;-68
2021/10/08 07:22:50;;;;;;;73.05;25.70;;;6.20;99.90;;;;;;4979490;28;20328;-68
2021/10/08 07:25:17;;;;;;;86.97;34.95;;;6.40;99.90;;;;;;4979821;28;20126;-68
2021/10/08 07:27:46;;;;;;;119.35;51.00;;;6.70;99.90;;;;;;4997569;28;20049;-68
2021/10/08 07:30:15;;;;;;;116.72;50.65;;;7.00;99.90;;;;;;4992753;28;20326;-68
2021/10/08 07:32:42;;;;;;;103.03;47.70;;;7.20;99.90;;;;;;4976001;28;20312;-68
2021/10/08 07:35:10;;;;;;;80.38;40.97;;;7.20;99.90;;;;;;4960728;28;20375;-67
2021/10/08 07:37:38;;;;;;;80.00;35.88;;;7.30;99.90;;;;;;4989322;28;20054;-67
2021/10/08 07:40:06;;;;;;;87.00;40.90;;;7.50;99.90;;;;;;4995593;28;20383;-67
2021/10/08 07:42:35;;;;;;;86.28;37.38;;;7.70;99.90;;;;;;4997694;28;20069;-68
2021/10/08 07:45:04;;;;;;;95.45;40.45;;;7.90;99.90;;;;;;4964221;28;20486;-67
2021/10/08 07:47:31;;;;;;;66.07;31.75;;;8.00;99.90;;;;;;4993855;28;20228;-68
2021/10/08 07:49:58;;;;;;;79.57;35.00;;;8.20;99.90;;;;;;4986759;28;20351;-67
2021/10/08 07:52:25;;;;;;;65.65;32.45;;;8.40;99.90;;;;;;4992636;28;20453;-67
2021/10/08 07:54:52;;;;;;;58.83;28.33;;;8.60;99.90;;;;;;4997322;28;20053;-67
2021/10/08 07:57:19;;;;;;;64.07;33.05;;;8.90;99.90;;;;;;4994877;28;20046;-67
2021/10/08 07:59:45;;;;;;;47.35;26.60;;;9.30;99.90;;;;;;4995975;28;20050;-68
2021/10/08 08:02:12;;;;;;;191.63;38.67;;;9.90;99.90;;;;;;4990066;28;20050;-68
2021/10/08 08:04:39;;;;;;;37.38;23.15;;;10.30;99.90;;;;;;4996961;28;20050;-67
2021/10/08 08:07:06;;;;;;;35.15;22.75;;;10.80;99.90;;;;;;4998950;28;20057;-67
2021/10/08 08:09:33;;;;;;;50.28;30.33;;;11.30;99.90;;;;;;4999089;28;20061;-68
2021/10/08 08:12:00;;;;;;;23.90;17.02;;;11.60;99.90;;;;;;4999148;28;20107;-66
2021/10/08 08:14:26;;;;;;;19.73;13.98;;;12.10;99.90;;;;;;5000008;28;20049;-65
2021/10/08 08:16:53;;;;;;;20.02;15.05;;;12.40;99.90;;;;;;4999595;28;20120;-66
2021/10/08 08:19:20;;;;;;;9.55;7.10;;;12.70;99.90;;;;;;4978765;28;20084;-67
2021/10/08 08:21:47;;;;;;;12.02;9.32;;;12.90;99.90;;;;;;4994849;28;20457;-67
2021/10/08 08:24:14;;;;;;;7.05;6.15;;;12.80;99.90;;;;;;4998401;28;20314;-67
2021/10/08 08:26:40;;;;;;;8.43;6.10;;;12.60;99.90;;;;;;4999834;28;20454;-68
2021/10/08 08:29:07;;;;;;;8.00;6.25;;;12.60;99.90;;;;;;4999365;28;20053;-67
2021/10/08 08:31:34;;;;;;;10.18;6.53;;;12.80;99.90;;;;;;4986285;28;20478;-66
2021/10/08 08:34:01;;;;;;;35.78;16.58;;;13.00;99.90;;;;;;4985311;28;20446;-67
2021/10/08 08:36:30;;;;;;;6.05;5.45;;;13.10;99.90;;;;;;4979617;28;20057;-67
2021/10/08 08:38:59;;;;;;;8.95;5.53;;;13.20;99.90;;;;;;4979155;28;20732;-68
2021/10/08 08:41:26;;;;;;;9.93;7.03;;;13.40;99.90;;;;;;4962833;28;20425;-66
2021/10/08 08:44:00;;;;;;;12.65;7.82;;;13.40;99.90;;;;;;4993538;28;20034;-66
2021/10/08 08:46:27;;;;;;;6.28;5.53;;;13.50;99.90;;;;;;4981843;28;20601;-68
2021/10/08 08:48:54;;;;;;;6.00;5.38;;;13.60;99.90;;;;;;4993968;28;20061;-68
2021/10/08 08:51:25;;;;;;;7.80;7.13;;;14.00;99.90;;;;;;4992060;28;20046;-67
2021/10/08 08:53:57;;;;;;;5.90;5.38;;;14.10;99.90;;;;;;4978854;28;20419;-69
2021/10/08 08:56:28;;;;;;;7.10;5.35;;;14.10;99.90;;;;;;4968596;28;20522;-68
2021/10/08 08:59:07;;;;;;;7.18;5.93;;;14.40;99.90;;;;;;4998497;28;20485;-68
2021/10/08 09:01:34;;;;;;;7.85;5.35;;;14.30;99.90;;;;;;4972508;28;20054;-68
2021/10/08 09:04:07;;;;;;;7.03;6.43;;;14.20;99.90;;;;;;4959956;28;20707;-67
2021/10/08 09:06:40;;;;;;;9.57;6.10;;;14.00;99.90;;;;;;4960633;28;20066;-68
2021/10/08 09:09:18;;;;;;;9.05;6.65;;;14.10;99.90;;;;;;4978169;28;20152;-69
2021/10/08 09:11:47;;;;;;;8.30;5.97;;;14.10;99.90;;;;;;4976914;28;20058;-67
2021/10/08 09:14:19;;;;;;;9.48;7.32;;;14.30;99.90;;;;;;4978100;28;20445;-70
2021/10/08 09:17:09;;;;;;;6.47;5.95;;;14.30;99.90;;;;;;4975212;28;20395;-69
2021/10/08 09:20:00;;;;;;;6.50;5.90;;;14.00;99.90;;;;;;4983020;28;20062;-69
2021/10/08 09:22:49;;;;;;;7.78;7.07;;;13.90;99.90;;;;;;4997290;28;20046;-71
2021/10/08 09:25:33;;;;;;;7.30;6.60;;;13.90;99.90;;;;;;4998223;28;20522;-67
2021/10/08 09:28:03;;;;;;;7.43;6.70;;;14.10;99.90;;;;;;4965772;28;20502;-71
2021/10/08 09:30:40;;;;;;;10.30;7.68;;;14.00;99.90;;;;;;4974272;28;20066;-66
2021/10/08 09:33:12;;;;;;;7.50;6.90;;;14.30;99.90;;;;;;4990800;28;20532;-68
2021/10/08 09:35:41;;;;;;;7.90;7.22;;;14.90;99.90;;;;;;4994226;28;20118;-68
2021/10/08 09:38:12;;;;;;;8.35;7.50;;;14.60;99.90;;;;;;4978532;28;20049;-67
2021/10/08 09:40:45;;;;;;;8.55;7.72;;;14.60;99.90;;;;;;4979273;28;20046;-68
2021/10/08 09:43:24;;;;;;;7.68;6.95;;;14.30;99.90;;;;;;4978211;28;20050;-66
2021/10/08 09:45:57;;;;;;;12.55;9.45;;;14.20;99.90;;;;;;4979446;28;20078;-68
2021/10/08 09:48:43;;;;;;;9.52;7.25;;;14.20;99.90;;;;;;4964816;28;20541;-67
2021/10/08 09:51:12;;;;;;;8.23;7.35;;;14.20;99.90;;;;;;4985024;28;20057;-67
2021/10/08 09:54:06;;;;;;;10.73;8.82;;;14.30;99.90;;;;;;4977234;28;20054;-67
2021/10/08 09:56:41;;;;;;;8.70;6.82;;;14.30;99.90;;;;;;4982548;28;20053;-69
2021/10/08 09:59:13;;;;;;;11.55;7.80;;;14.30;99.90;;;;;;4987470;28;20061;-68
2021/10/08 10:01:42;;;;;;;8.90;8.07;;;13.90;99.90;;;;;;4959293;28;20578;-71
2021/10/08 10:04:10;;;;;;;8.88;7.40;;;13.70;99.90;;;;;;4961128;28;20672;-69
2021/10/08 10:06:38;;;;;;;10.90;9.18;;;13.80;99.90;;;;;;4959693;28;20050;-66
2021/10/08 10:09:08;;;;;;;9.25;7.00;;;13.90;99.90;;;;;;4992774;28;20061;-69
2021/10/08 10:11:36;;;;;;;9.02;7.30;;;13.80;99.90;;;;;;4996142;28;20041;-68
2021/10/08 10:14:03;;;;;;;9.63;7.38;;;14.20;99.90;;;;;;4997288;28;20600;-68
2021/10/08 10:16:33;;;;;;;12.50;8.60;;;14.40;99.90;;;;;;4994290;28;20111;-70
2021/10/08 10:19:02;;;;;;;10.07;8.95;;;14.70;99.90;;;;;;4996498;28;20088;-67
2021/10/08 10:21:36;;;;;;;10.27;9.27;;;15.00;99.90;;;;;;4979217;28;20109;-69
2021/10/08 10:24:04;;;;;;;10.23;9.23;;;15.20;99.90;;;;;;5012220;28;20309;-70
2021/10/08 10:26:33;;;;;;;11.05;9.98;;;15.10;99.90;;;;;;4994889;28;20050;-68
2021/10/08 10:29:02;;;;;;;13.75;9.77;;;15.30;99.90;;;;;;4980519;28;20045;-69
2021/10/08 10:31:31;;;;;;;10.15;9.27;;;15.20;99.90;;;;;;4993040;28;20461;-68
2021/10/08 10:34:01;;;;;;;11.02;9.95;;;15.30;99.90;;;;;;4984629;28;20046;-68
2021/10/08 10:36:37;;;;;;;12.60;11.38;;;15.50;99.90;;;;;;4997731;28;20049;-69
2021/10/08 10:39:20;;;;;;;12.52;11.43;;;15.60;99.90;;;;;;4998241;28;20076;-69
2021/10/08 10:42:02;;;;;;;11.32;9.88;;;15.50;99.90;;;;;;4979093;28;20170;-68
2021/10/08 10:44:37;;;;;;;11.48;10.35;;;15.50;99.90;;;;;;4996837;28;20081;-69
2021/10/08 10:47:19;;;;;;;10.82;9.80;;;15.60;99.90;;;;;;4995178;28;20125;-69
2021/10/08 10:49:51;;;;;;;11.90;10.88;;;15.60;99.90;;;;;;4977866;28;20108;-69
2021/10/08 10:52:21;;;;;;;12.07;10.85;;;15.70;99.90;;;;;;4975923;28;20038;-69
2021/10/08 10:54:51;;;;;;;11.80;10.90;;;15.90;99.90;;;;;;4978912;28;20058;-69
2021/10/08 10:57:18;;;;;;;11.80;10.70;;;15.80;99.90;;;;;;4974624;28;20157;-70
2021/10/08 10:59:46;;;;;;;13.23;11.73;;;16.00;99.90;;;;;;4996264;28;20217;-70
2021/10/08 11:02:14;;;;;;;13.52;12.18;;;16.20;99.90;;;;;;4982061;28;20050;-69
2021/10/08 11:04:45;;;;;;;12.95;11.65;;;16.00;99.90;;;;;;4960204;28;20054;-69
2021/10/08 11:07:14;;;;;;;13.98;12.27;;;15.80;99.90;;;;;;4978204;28;20074;-69
2021/10/08 11:09:43;;;;;;;12.35;11.25;;;15.60;99.90;;;;;;4960810;28;20261;-70
2021/10/08 11:12:36;;;;;;;12.57;11.20;;;15.80;99.90;;;;;;4976560;28;20072;-69
2021/10/08 11:15:21;;;;;;;14.15;12.60;;;16.10;99.90;;;;;;4964955;28;20541;-69
2021/10/08 11:17:55;;;;;;;15.68;12.27;;;16.00;99.90;;;;;;4997038;28;20057;-70
2021/10/08 11:21:03;;;;;;;13.38;11.95;;;16.10;99.90;;;;;;4984962;28;20054;-70
2021/10/08 11:23:24;;;;;;;13.02;11.73;;;16.20;99.90;;;;;;4979110;28;20514;-70
2021/10/08 11:25:54;;;;;;;13.93;12.65;;;16.60;99.90;;;;;;4975758;28;20042;-73
2021/10/08 11:28:39;;;;;;;14.65;13.25;;;16.30;99.90;;;;;;4960392;28;20104;-70
2021/10/08 11:31:09;;;;;;;12.98;11.90;;;16.20;99.90;;;;;;4966967;28;20056;-70
2021/10/08 11:33:56;;;;;;;13.50;12.07;;;16.10;99.90;;;;;;4994402;28;20142;-70
2021/10/08 11:36:31;;;;;;;12.20;10.95;;;16.10;99.90;;;;;;4995677;28;20160;-71
2021/10/08 11:39:12;;;;;;;12.80;11.65;;;16.40;99.90;;;;;;4997483;28;20069;-72
2021/10/08 11:41:41;;;;;;;12.27;11.32;;;16.70;99.90;;;;;;4966294;28;20383;-72
2021/10/08 11:44:39;;;;;;;16.33;11.77;;;16.80;99.90;;;;;;4982649;28;20077;-70
2021/10/08 11:47:08;;;;;;;13.05;11.73;;;16.50;99.90;;;;;;4998441;28;20506;-71
2021/10/08 11:52:04;;;;;;;14.25;12.85;;;16.90;99.90;;;;;;4984766;28;20046;-69
2021/10/08 11:54:30;;;;;;;13.50;12.13;;;16.90;99.90;;;;;;4976487;28;20085;-70
2021/10/08 11:57:06;;;;;;;14.05;12.77;;;16.90;99.90;;;;;;4986840;28;20401;-69
2021/10/08 11:59:33;;;;;;;14.23;12.93;;;16.70;99.90;;;;;;5003506;28;20045;-72
2021/10/08 12:02:15;;;;;;;15.90;14.40;;;16.70;99.90;;;;;;4992739;28;20045;-69
2021/10/08 12:04:59;;;;;;;13.45;12.02;;;16.50;99.90;;;;;;4980456;28;20057;-69
2021/10/08 12:07:35;;;;;;;14.00;12.60;;;16.60;99.90;;;;;;4982384;28;20046;-71
2021/10/08 12:10:10;;;;;;;13.80;12.50;;;16.40;99.90;;;;;;5000505;28;20042;-71
2021/10/08 12:12:54;;;;;;;;;;;16.40;99.90;;;;;;4983296;28;20053;-70
2021/10/08 12:15:23;;;;;;;12.40;11.15;;;16.30;99.90;;;;;;4993437;28;19928;-72
2021/10/08 12:17:51;;;;;;;14.60;11.68;;;16.30;99.90;;;;;;4996960;28;20136;-70
2021/10/08 12:20:29;;;;;;;13.48;12.00;;;16.10;99.90;;;;;;4985998;28;20366;-70
2021/10/08 12:23:17;;;;;;;14.10;12.60;;;16.10;99.90;;;;;;4998345;28;20483;-70
2021/10/08 12:25:45;;;;;;;13.15;11.82;;;16.20;99.90;;;;;;4998121;28;20046;-71
2021/10/08 12:28:19;;;;;;;14.63;13.13;;;16.10;99.90;;;;;;4970959;28;20038;-70
2021/10/08 12:31:00;;;;;;;12.50;11.40;;;16.10;99.90;;;;;;4990989;28;20049;-69
2021/10/08 12:33:42;;;;;;;13.55;12.35;;;16.10;99.90;;;;;;4996056;28;20050;-70
2021/10/08 12:36:24;;;;;;;14.25;12.85;;;16.20;99.90;;;;;;4981945;28;20425;-68
2021/10/08 12:39:06;;;;;;;14.25;12.85;;;16.40;99.90;;;;;;4997483;28;20468;-71
2021/10/08 12:41:56;;;;;;;14.02;12.73;;;16.70;99.90;;;;;;4983195;28;20380;-71
2021/10/08 12:44:30;;;;;;;16.08;13.88;;;16.70;99.90;;;;;;4977593;28;20074;-70
2021/10/08 12:49:54;;;;;;;15.27;13.70;;;16.20;99.90;;;;;;4983256;28;20518;-72
2021/10/08 12:52:43;;;;;;;16.20;14.50;;;16.20;99.90;;;;;;4980798;28;20437;-70
2021/10/08 12:55:18;;;;;;;19.38;14.70;;;15.70;99.90;;;;;;4979313;28;20442;-69
2021/10/08 12:58:11;;;;;;;18.02;14.70;;;15.50;99.90;;;;;;4983860;28;20375;-68
2021/10/08 13:00:52;;;;;;;15.57;14.07;;;15.70;99.90;;;;;;4965644;28;20054;-68